createdAt,value
2023-03-22T00:03:30.548Z,580.00
2023-03-22T00:07:30.768Z,581.00
2023-03-22T00:11:30.962Z,582.00
2023-03-22T00:15:31.187Z,581.00
2023-03-22T00:19:31.418Z,576.00
2023-03-22T00:23:31.367Z,584.00
2023-03-22T00:27:31.365Z,582.00
2023-03-22T00:31:31.338Z,581.00
2023-03-22T00:35:31.272Z,581.00
2023-03-22T00:39:31.229Z,589.00
2023-03-22T00:43:31.201Z,582.00
2023-03-22T00:47:31.189Z,580.00
2023-03-22T00:51:31.142Z,580.00
2023-03-22T00:55:31.086Z,588.00
2023-03-22T00:59:31.061Z,579.00
2023-03-22T01:03:31.055Z,585.00
2023-03-22T01:07:31.028Z,583.00
2023-03-22T01:11:30.951Z,576.00
2023-03-22T01:15:30.916Z,575.00
2023-03-22T01:19:30.885Z,578.00
2023-03-22T01:23:30.866Z,580.00
2023-03-22T01:27:30.844Z,580.00
2023-03-22T01:31:30.753Z,578.00
2023-03-22T01:35:30.840Z,580.00
2023-03-22T01:39:30.661Z,579.00
2023-03-22T01:43:30.669Z,584.00
2023-03-22T01:47:30.677Z,577.00
2023-03-22T01:51:30.600Z,582.00
2023-03-22T01:55:30.555Z,584.00
2023-03-22T01:59:30.557Z,588.00
2023-03-22T02:03:30.461Z,579.00
2023-03-22T02:07:30.423Z,582.00
2023-03-22T02:11:30.422Z,578.00
2023-03-22T02:15:30.347Z,576.00
2023-03-22T02:19:30.551Z,581.00
2023-03-22T02:23:30.525Z,577.00
2023-03-22T02:27:30.437Z,579.00
2023-03-22T02:31:30.465Z,581.00
2023-03-22T02:35:30.402Z,579.00
2023-03-22T02:39:30.339Z,577.00
2023-03-22T02:43:30.801Z,585.00
2023-03-22T02:47:30.271Z,581.00
2023-03-22T02:51:30.213Z,577.00
2023-03-22T02:55:30.204Z,579.00
2023-03-22T02:59:30.275Z,577.00
2023-03-22T03:03:30.207Z,575.00
2023-03-22T03:07:30.408Z,576.00
2023-03-22T03:11:32.316Z,576.00
2023-03-22T03:15:30.703Z,582.00
2023-03-22T03:19:30.905Z,574.00
2023-03-22T03:23:30.992Z,580.00
2023-03-22T03:27:31.158Z,578.00
2023-03-22T03:31:31.376Z,577.00
2023-03-22T03:35:31.835Z,579.00
2023-03-22T03:39:31.633Z,580.00
2023-03-22T03:43:31.764Z,581.00
2023-03-22T03:47:32.300Z,581.00
2023-03-22T03:51:31.964Z,575.00
2023-03-22T03:55:32.293Z,571.00
2023-03-22T03:59:32.114Z,579.00
2023-03-22T04:04:08.781Z,500.00
2023-03-22T04:08:08.716Z,504.00
2023-03-22T04:12:08.692Z,506.00
2023-03-22T04:16:08.677Z,505.00
2023-03-22T04:20:08.668Z,503.00
2023-03-22T04:24:08.595Z,504.00
2023-03-22T04:28:08.528Z,503.00
2023-03-22T04:32:09.465Z,505.00
2023-03-22T04:36:08.456Z,501.00
2023-03-22T04:40:08.441Z,506.00
2023-03-22T04:44:08.457Z,509.00
2023-03-22T04:48:08.396Z,509.00
2023-03-22T04:52:08.319Z,504.00
2023-03-22T04:56:08.423Z,510.00
2023-03-22T05:00:08.265Z,508.00
2023-03-22T05:04:08.212Z,500.00
2023-03-22T05:08:08.202Z,502.00
2023-03-22T05:12:08.199Z,501.00
2023-03-22T05:16:08.162Z,506.00
2023-03-22T05:20:08.079Z,498.00
2023-03-22T05:24:08.089Z,501.00
2023-03-22T05:28:08.104Z,503.00
2023-03-22T05:32:08.070Z,505.00
2023-03-22T05:36:08.068Z,508.00
2023-03-22T05:40:08.493Z,504.00
2023-03-22T05:44:08.492Z,509.00
2023-03-22T05:48:08.102Z,509.00
2023-03-22T05:52:08.033Z,512.00
2023-03-22T05:56:07.966Z,514.00
2023-03-22T06:00:07.996Z,510.00
2023-03-22T06:04:08.037Z,513.00
2023-03-22T06:08:07.984Z,519.00
2023-03-22T06:12:07.977Z,523.00
2023-03-22T06:16:08.001Z,525.00
2023-03-22T06:20:08.049Z,526.00
2023-03-22T06:24:08.535Z,524.00
2023-03-22T06:28:08.872Z,527.00
2023-03-22T06:32:08.030Z,514.00
2023-03-22T06:36:08.062Z,531.00
2023-03-22T06:40:08.430Z,528.00
2023-03-22T06:44:08.550Z,533.00
2023-03-22T06:48:08.581Z,585.00
2023-03-22T06:52:08.981Z,612.00
2023-03-22T06:56:08.767Z,627.00
2023-03-22T07:00:08.529Z,626.00
2023-03-22T07:04:08.706Z,625.00
2023-03-22T07:08:08.362Z,634.00
2023-03-22T07:12:08.918Z,642.00
2023-03-22T07:16:08.533Z,643.00
2023-03-22T07:20:08.460Z,632.00
2023-03-22T07:24:08.241Z,627.00
2023-03-22T07:28:08.415Z,628.00
2023-03-22T07:32:08.752Z,619.00
2023-03-22T07:36:08.534Z,615.00
2023-03-22T07:40:08.350Z,624.00
2023-03-22T07:44:17.600Z,626.00
2023-03-22T07:48:10.238Z,634.00
2023-03-22T07:52:10.337Z,638.00
2023-03-22T07:56:08.445Z,636.00
2023-03-22T08:00:08.632Z,629.00
2023-03-22T08:04:08.816Z,629.00
2023-03-22T08:08:08.991Z,629.00
2023-03-22T08:12:09.124Z,611.00
2023-03-22T08:16:09.312Z,601.00
2023-03-22T08:20:09.392Z,592.00
2023-03-22T08:24:09.479Z,586.00
2023-03-22T08:28:09.602Z,587.00
2023-03-22T08:32:09.723Z,611.00
2023-03-22T08:36:09.701Z,621.00
2023-03-22T08:40:09.824Z,609.00
2023-03-22T08:44:09.912Z,608.00
2023-03-22T08:48:10.189Z,595.00
2023-03-22T08:52:09.971Z,591.00
2023-03-22T08:56:10.054Z,609.00
2023-03-22T09:00:10.068Z,592.00
2023-03-22T09:04:10.802Z,583.00
2023-03-22T09:08:18.203Z,584.00
2023-03-22T09:12:11.031Z,576.00
2023-03-22T09:16:09.943Z,553.00
2023-03-22T09:20:13.102Z,555.00
2023-03-22T09:24:09.878Z,551.00
2023-03-22T09:28:09.944Z,531.00
2023-03-22T09:32:10.091Z,428.00
2023-03-22T09:36:09.738Z,497.00
2023-03-22T09:40:09.758Z,502.00
2023-03-22T09:44:09.685Z,580.00
2023-03-22T09:48:09.732Z,652.00
2023-03-22T09:52:09.661Z,827.00
2023-03-22T09:56:09.717Z,1039.00
2023-03-22T10:00:09.548Z,1137.00
2023-03-22T10:04:10.124Z,1136.00
2023-03-22T10:08:09.509Z,1022.00
2023-03-22T10:12:09.415Z,634.00
2023-03-22T10:16:09.444Z,555.00
2023-03-22T10:20:09.526Z,697.00
2023-03-22T10:24:09.374Z,764.00
2023-03-22T10:28:09.321Z,485.00
2023-03-22T10:32:09.360Z,637.00
2023-03-22T10:36:09.553Z,511.00
2023-03-22T10:40:09.440Z,634.00
2023-03-22T10:44:09.366Z,897.00
2023-03-22T10:48:09.386Z,1178.00
2023-03-22T10:52:09.345Z,1318.00
2023-03-22T10:56:09.261Z,1442.00
2023-03-22T11:00:09.244Z,1410.00
2023-03-22T11:04:09.226Z,1443.00
2023-03-22T11:08:09.152Z,1614.00
2023-03-22T11:12:09.110Z,1538.00
2023-03-22T11:16:09.125Z,1656.00
2023-03-22T11:20:09.099Z,1761.00
2023-03-22T11:24:09.014Z,1694.00
2023-03-22T11:28:09.076Z,1601.00
2023-03-22T11:32:08.991Z,1195.00
2023-03-22T11:36:09.188Z,1319.00
2023-03-22T11:40:08.852Z,1319.00
2023-03-22T11:44:08.815Z,1391.00
2023-03-22T11:48:08.966Z,1537.00
2023-03-22T11:52:08.772Z,1603.00
2023-03-22T11:56:09.776Z,1642.00
2023-03-22T12:00:08.765Z,1505.00
2023-03-22T12:04:08.708Z,1506.00
2023-03-22T12:08:08.842Z,1512.00
2023-03-22T12:12:08.793Z,1510.00
2023-03-22T12:16:08.801Z,1579.00
2023-03-22T12:20:09.164Z,1516.00
2023-03-22T12:24:09.137Z,1064.00
2023-03-22T12:28:08.676Z,802.00
2023-03-22T12:32:08.638Z,796.00
2023-03-22T12:36:08.630Z,634.00
2023-03-22T12:40:08.593Z,486.00
2023-03-22T12:44:08.631Z,537.00
2023-03-22T12:48:08.517Z,619.00
2023-03-22T12:52:08.487Z,765.00
2023-03-22T12:56:08.459Z,768.00
2023-03-22T13:00:08.378Z,876.00
2023-03-22T13:04:08.589Z,882.00
2023-03-22T13:08:08.330Z,1004.00
2023-03-22T13:12:08.294Z,1075.00
2023-03-22T13:16:08.301Z,1057.00
2023-03-22T13:20:08.222Z,1112.00
2023-03-22T13:24:08.186Z,1074.00
2023-03-22T13:28:08.143Z,1128.00
2023-03-22T13:32:08.370Z,1147.00
2023-03-22T13:36:08.350Z,1205.00
2023-03-22T13:40:08.242Z,1261.00
2023-03-22T13:44:08.231Z,1267.00
2023-03-22T13:48:08.283Z,1312.00
2023-03-22T13:52:08.203Z,1402.00
2023-03-22T13:56:08.154Z,1410.00
2023-03-22T14:00:12.167Z,1560.00
2023-03-22T14:04:09.050Z,1595.00
2023-03-22T14:08:08.001Z,1628.00
2023-03-22T14:12:08.021Z,1640.00
2023-03-22T14:16:08.114Z,1656.00
2023-03-22T14:20:07.942Z,1675.00
2023-03-22T14:49:08.206Z,500.00
2023-03-22T14:53:08.186Z,507.00
2023-03-22T14:57:08.152Z,511.00
2023-03-22T15:01:08.143Z,502.00
2023-03-22T15:05:08.045Z,506.00
2023-03-22T15:09:08.042Z,498.00
2023-03-22T15:13:08.003Z,520.00
2023-03-22T15:17:07.959Z,535.00
2023-03-22T15:21:07.989Z,513.00
2023-03-22T15:25:07.886Z,535.00
2023-03-22T15:29:07.913Z,519.00
2023-03-22T15:33:07.796Z,518.00
2023-03-22T15:37:07.857Z,512.00
2023-03-22T15:41:08.012Z,509.00
2023-03-22T15:45:08.229Z,537.00
2023-03-22T15:49:08.340Z,577.00
2023-03-22T15:53:08.516Z,634.00
2023-03-22T15:57:08.737Z,608.00
2023-03-22T16:01:08.818Z,590.00
2023-03-22T16:05:08.937Z,565.00
2023-03-22T16:09:09.121Z,566.00
2023-03-22T16:13:09.139Z,565.00
2023-03-22T16:17:09.076Z,556.00
2023-03-22T16:21:09.043Z,549.00
2023-03-22T16:25:09.449Z,546.00
2023-03-22T16:29:08.960Z,537.00
2023-03-22T16:33:08.947Z,534.00
2023-03-22T16:37:08.950Z,526.00
2023-03-22T16:41:08.881Z,514.00
2023-03-22T16:45:08.867Z,514.00
2023-03-22T16:49:08.779Z,511.00
2023-03-22T16:53:08.849Z,503.00
2023-03-22T16:57:08.746Z,508.00
2023-03-22T17:01:08.714Z,510.00
2023-03-22T17:05:08.694Z,521.00
2023-03-22T17:09:08.633Z,540.00
2023-03-22T17:13:08.587Z,563.00
2023-03-22T17:17:08.591Z,555.00
2023-03-22T17:21:08.794Z,559.00
2023-03-22T17:25:08.798Z,541.00
2023-03-22T17:29:08.762Z,521.00
2023-03-22T17:33:09.650Z,561.00
2023-03-22T17:37:08.674Z,543.00
2023-03-22T17:41:08.934Z,513.00
2023-03-22T17:45:08.677Z,537.00
2023-03-22T17:49:08.577Z,531.00
2023-03-22T17:53:20.864Z,562.00
2023-03-22T17:57:36.388Z,596.00
2023-03-22T18:01:09.723Z,605.00
2023-03-22T18:05:08.662Z,625.00
2023-03-22T18:09:08.585Z,624.00
2023-03-22T18:13:08.534Z,623.00
2023-03-22T18:17:08.561Z,619.00
2023-03-22T18:21:08.508Z,600.00
2023-03-22T18:25:08.417Z,590.00
2023-03-22T18:29:08.361Z,598.00
2023-03-22T18:33:08.378Z,568.00
2023-03-22T18:37:08.510Z,577.00
2023-03-22T18:41:32.001Z,614.00
2023-03-22T18:45:10.423Z,696.00
2023-03-22T18:49:08.368Z,777.00
2023-03-22T18:53:18.166Z,746.00
2023-03-22T18:57:10.750Z,701.00
2023-03-22T19:01:08.443Z,672.00
2023-03-22T19:05:08.468Z,657.00
2023-03-22T19:09:08.550Z,619.00
2023-03-22T19:13:08.553Z,592.00
2023-03-22T19:17:08.569Z,580.00
2023-03-22T19:21:13.405Z,577.00
2023-03-22T19:25:09.622Z,603.00
2023-03-22T19:29:08.548Z,656.00
2023-03-22T19:33:27.665Z,661.00
2023-03-22T19:37:09.528Z,665.00
2023-03-22T19:41:40.708Z,747.00
2023-03-22T19:45:09.566Z,723.00
2023-03-22T19:49:08.427Z,758.00
2023-03-22T19:53:42.536Z,752.00
2023-03-22T19:57:09.343Z,780.00
2023-03-22T20:01:08.269Z,794.00
2023-03-22T20:05:16.262Z,815.00
2023-03-22T20:09:09.211Z,844.00
2023-03-22T20:13:08.555Z,849.00
2023-03-22T20:17:10.546Z,853.00
2023-03-22T20:21:08.126Z,851.00
2023-03-22T20:25:08.609Z,877.00
2023-03-22T20:29:08.019Z,896.00
2023-03-22T20:33:08.048Z,917.00
2023-03-22T20:37:07.979Z,941.00
2023-03-22T20:41:07.943Z,946.00
2023-03-22T20:45:07.919Z,964.00
2023-03-22T20:49:07.840Z,962.00
2023-03-22T20:53:07.815Z,977.00
2023-03-22T20:57:07.790Z,975.00
2023-03-22T21:01:07.846Z,977.00
2023-03-22T21:05:07.997Z,982.00
2023-03-22T21:09:07.874Z,986.00
2023-03-22T21:13:07.850Z,974.00
2023-03-22T21:17:07.865Z,994.00
2023-03-22T21:21:07.854Z,989.00
2023-03-22T21:25:07.890Z,997.00
2023-03-22T21:29:07.906Z,986.00
2023-03-22T21:33:07.876Z,988.00
2023-03-22T21:37:07.935Z,983.00
2023-03-22T21:41:07.943Z,986.00
2023-03-22T21:45:07.915Z,986.00
2023-03-22T21:49:07.961Z,978.00
2023-03-22T21:53:07.968Z,974.00
2023-03-22T21:57:07.994Z,968.00
2023-03-22T22:01:08.032Z,960.00
2023-03-22T22:05:08.132Z,954.00
2023-03-22T22:09:08.138Z,946.00
2023-03-22T22:13:08.141Z,946.00
2023-03-22T22:17:08.606Z,963.00
2023-03-22T22:21:08.250Z,938.00
2023-03-22T22:25:08.295Z,953.00
2023-03-22T22:29:08.319Z,939.00
2023-03-22T22:33:08.382Z,961.00
2023-03-22T22:37:08.383Z,956.00
2023-03-22T22:41:08.466Z,961.00
2023-03-22T22:45:08.466Z,942.00
2023-03-22T22:49:08.514Z,942.00
2023-03-22T22:53:08.587Z,932.00
2023-03-22T22:57:08.623Z,951.00
2023-03-22T23:01:08.652Z,947.00
2023-03-22T23:05:08.652Z,947.00
2023-03-22T23:09:08.723Z,947.00
2023-03-22T23:13:08.863Z,948.00
2023-03-22T23:17:08.858Z,940.00
2023-03-22T23:21:08.877Z,924.00
2023-03-22T23:25:08.935Z,941.00
2023-03-22T23:29:09.027Z,939.00
2023-03-22T23:33:09.170Z,922.00
2023-03-22T23:37:09.179Z,916.00
2023-03-22T23:41:09.261Z,921.00
2023-03-22T23:45:09.350Z,911.00
2023-03-22T23:49:09.275Z,914.00
2023-03-22T23:53:09.224Z,919.00
2023-03-22T23:57:09.225Z,896.00
